createdAt,value
2022-12-03T00:00:45.380Z,101021.6640625
2022-12-03T00:01:45.357Z,101023.5390625
2022-12-03T00:02:45.508Z,101016.8671875
2022-12-03T00:03:45.759Z,101020.9296875
2022-12-03T00:04:45.252Z,101018.51171875
2022-12-03T00:05:48.868Z,101018.58984375
2022-12-03T00:06:45.283Z,101020.4296875
2022-12-03T00:07:48.382Z,101020.06640625
2022-12-03T00:08:45.637Z,101019.2578125
2022-12-03T00:09:45.481Z,101017.484375
2022-12-03T00:10:45.345Z,101020.3671875
2022-12-03T00:11:45.768Z,101017.40625
2022-12-03T00:12:45.539Z,101012.69140625
2022-12-03T00:13:45.673Z,101012.5234375
2022-12-03T00:14:45.278Z,101013.29296875
2022-12-03T00:15:45.338Z,101011.9609375
2022-12-03T00:16:45.381Z,101015.3046875
2022-12-03T00:17:45.276Z,101016.96875
2022-12-03T00:18:48.661Z,101010.875
2022-12-03T00:19:45.356Z,101012.85546875
2022-12-03T00:20:45.265Z,101013.51171875
2022-12-03T00:21:45.350Z,101008.17578125
2022-12-03T00:22:45.344Z,101004.98046875
2022-12-03T00:23:45.708Z,101006.72265625
2022-12-03T00:24:45.286Z,101011.21875
2022-12-03T00:25:45.269Z,101010.87109375
2022-12-03T00:26:45.715Z,101004.69921875
2022-12-03T00:27:45.346Z,101009.75390625
2022-12-03T00:28:45.704Z,101006.4375
2022-12-03T00:29:48.391Z,101005.484375
2022-12-03T00:30:45.528Z,101005.70703125
2022-12-03T00:31:45.587Z,101004.640625
2022-12-03T00:32:45.266Z,101003.01953125
2022-12-03T00:33:45.653Z,101004.2578125
2022-12-03T00:34:45.413Z,101006.3359375
2022-12-03T00:35:45.306Z,101005.046875
2022-12-03T00:36:45.284Z,100999.76953125
2022-12-03T00:37:45.408Z,100999.5
2022-12-03T00:38:45.650Z,101002.98046875
2022-12-03T00:39:45.448Z,101000.84765625
2022-12-03T00:40:48.396Z,100996.1640625
2022-12-03T00:41:45.670Z,100997.6328125
2022-12-03T00:42:45.282Z,101002.8515625
2022-12-03T00:43:45.709Z,101001.78125
2022-12-03T00:44:45.383Z,100999.26953125
2022-12-03T00:45:45.268Z,100995.90234375
2022-12-03T00:46:45.355Z,100998.9453125
2022-12-03T00:47:45.418Z,100999.02734375
2022-12-03T00:48:45.635Z,100991.15625
2022-12-03T00:49:45.352Z,100994.2578125
2022-12-03T00:50:45.381Z,100994.74609375
2022-12-03T00:51:45.406Z,100996.27734375
2022-12-03T00:52:45.495Z,100994.046875
2022-12-03T00:53:45.761Z,100994.19140625
2022-12-03T00:54:45.419Z,100988.55078125
2022-12-03T00:55:45.373Z,100992.69140625
2022-12-03T00:56:51.298Z,100989.51953125
2022-12-03T00:57:45.502Z,100993.10546875
2022-12-03T00:58:45.709Z,100996.4140625
2022-12-03T00:59:45.462Z,100996.4140625
2022-12-03T01:00:45.365Z,100995.69140625
2022-12-03T01:01:45.484Z,100993.9296875
2022-12-03T01:02:48.314Z,100991.38671875
2022-12-03T01:03:45.635Z,100991.6484375
2022-12-03T01:04:45.326Z,100989.55078125
2022-12-03T01:05:45.252Z,100987.5234375
2022-12-03T01:06:45.424Z,100989.2109375
2022-12-03T01:07:45.318Z,100991.63671875
2022-12-03T01:08:45.628Z,100993.53125
2022-12-03T01:09:45.464Z,100991.2265625
2022-12-03T01:10:45.455Z,100988.69921875
2022-12-03T01:11:45.695Z,100990.10546875
2022-12-03T01:12:45.453Z,100991.47265625
2022-12-03T01:13:51.387Z,100992.19140625
2022-12-03T01:14:45.364Z,100989.62109375
2022-12-03T01:15:45.499Z,100989.78125
2022-12-03T01:16:45.275Z,100987.65234375
2022-12-03T01:17:45.359Z,100989.78515625
2022-12-03T01:18:45.711Z,100990.296875
2022-12-03T01:19:48.415Z,100994.46875
2022-12-03T01:20:45.456Z,100994.984375
2022-12-03T01:21:45.283Z,100994.71875
2022-12-03T01:22:45.387Z,100993.92578125
2022-12-03T01:23:45.710Z,100998.37109375
2022-12-03T01:24:45.303Z,100998.66796875
2022-12-03T01:25:45.439Z,100994.34765625
2022-12-03T01:26:45.641Z,100994.8828125
2022-12-03T01:27:45.441Z,100993.6015625
2022-12-03T01:28:45.723Z,101000.234375
2022-12-03T01:29:48.409Z,100996.953125
2022-12-03T01:30:45.318Z,100994.484375
2022-12-03T01:31:45.442Z,100998.3671875
2022-12-03T01:32:45.274Z,100997.44140625
2022-12-03T01:33:45.722Z,100996.8125
2022-12-03T01:34:45.354Z,100994.44140625
2022-12-03T01:35:45.500Z,100996.57421875
2022-12-03T01:36:45.289Z,101000.37890625
2022-12-03T01:37:45.289Z,100994.828125
2022-12-03T01:38:45.713Z,101002.77734375
2022-12-03T01:39:45.365Z,101000.24609375
2022-12-03T01:40:45.431Z,100999.06640625
2022-12-03T01:41:45.769Z,100997.68359375
2022-12-03T01:42:45.359Z,101000.2890625
2022-12-03T01:43:45.716Z,101003.8828125
2022-12-03T01:44:45.437Z,101003.5078125
2022-12-03T01:45:48.325Z,100999.85546875
2022-12-03T01:46:45.399Z,101000.5078125
2022-12-03T01:47:45.269Z,101001.42578125
2022-12-03T01:48:45.788Z,100999.921875
2022-12-03T01:49:45.367Z,101004.23046875
2022-12-03T01:50:45.453Z,100999.08984375
2022-12-03T01:51:45.332Z,100997.796875
2022-12-03T01:52:45.399Z,100999.78515625
2022-12-03T01:53:45.632Z,100999.65625
2022-12-03T01:54:45.344Z,100997.21484375
2022-12-03T01:55:48.572Z,100998.9765625
2022-12-03T01:56:45.635Z,101000.81640625
2022-12-03T01:57:45.399Z,101002.7109375
2022-12-03T01:58:45.635Z,101004.42578125
2022-12-03T01:59:45.492Z,101001.03125
2022-12-03T02:00:45.460Z,101001.00390625
2022-12-03T02:01:45.339Z,101002.07421875
2022-12-03T02:02:45.453Z,101003.08984375
2022-12-03T02:03:45.855Z,101002.046875
2022-12-03T02:04:45.264Z,100999.8984375
2022-12-03T02:05:45.366Z,100999.58984375
2022-12-03T02:06:48.380Z,100996.83984375
2022-12-03T02:07:45.463Z,101000.3984375
2022-12-03T02:08:45.712Z,100998.80859375
2022-12-03T02:09:45.453Z,101003.80078125
2022-12-03T02:10:45.418Z,100998.6015625
2022-12-03T02:11:45.696Z,100999.6328125
2022-12-03T02:12:45.309Z,101002.8828125
2022-12-03T02:13:45.727Z,101001.04296875
2022-12-03T02:14:45.331Z,101001.3203125
2022-12-03T02:15:45.481Z,101002.54296875
2022-12-03T02:16:45.396Z,101003.22265625
2022-12-03T02:17:48.432Z,101004.21875
2022-12-03T02:18:45.703Z,101008.703125
2022-12-03T02:19:45.369Z,101006.67578125
2022-12-03T02:20:45.344Z,101005.21875
2022-12-03T02:21:45.387Z,101005.94140625
2022-12-03T02:22:45.304Z,101007.19140625
2022-12-03T02:23:45.643Z,101003.3828125
2022-12-03T02:24:45.271Z,101007.0859375
2022-12-03T02:25:45.367Z,101004.69140625
2022-12-03T02:26:45.642Z,101008.80078125
2022-12-03T02:27:45.438Z,101005.89453125
2022-12-03T02:28:51.331Z,101004.4296875
2022-12-03T02:29:45.349Z,101000.98828125
2022-12-03T02:30:45.470Z,101004.07421875
2022-12-03T02:31:45.478Z,101005
2022-12-03T02:32:45.275Z,101009.0703125
2022-12-03T02:33:45.641Z,101001.6328125
2022-12-03T02:34:45.417Z,101005.55859375
2022-12-03T02:35:45.359Z,101005.84765625
2022-12-03T02:36:45.272Z,101001.30078125
2022-12-03T02:37:45.396Z,101001.14453125
2022-12-03T02:38:45.755Z,100996.60546875
2022-12-03T02:39:48.419Z,100998.97265625
2022-12-03T02:40:45.379Z,100996.7109375
2022-12-03T02:41:45.738Z,100997.625
2022-12-03T02:42:45.358Z,100996.7734375
2022-12-03T02:43:45.811Z,100993.24609375
2022-12-03T02:44:45.488Z,100994.40234375
2022-12-03T02:45:45.390Z,100991.5390625
2022-12-03T02:46:45.468Z,100991.046875
2022-12-03T02:47:45.281Z,100988.234375
2022-12-03T02:48:45.632Z,100995.08203125
2022-12-03T02:49:45.481Z,100992.52734375
2022-12-03T02:50:45.389Z,100994.1328125
2022-12-03T02:51:45.291Z,100994.17578125
2022-12-03T02:52:45.402Z,100990.6640625
2022-12-03T02:53:45.716Z,100991.32421875
2022-12-03T02:54:45.375Z,100988.578125
2022-12-03T02:55:48.273Z,100992.26171875
2022-12-03T02:56:45.640Z,100992.8828125
2022-12-03T02:57:45.363Z,100993.63671875
2022-12-03T02:58:45.712Z,100992.8203125
2022-12-03T02:59:45.351Z,100992.66015625
2022-12-03T03:00:45.460Z,100995.08203125
2022-12-03T03:01:45.298Z,100990.7890625
2022-12-03T03:02:45.413Z,100994.5625
2022-12-03T03:03:45.641Z,100995.24609375
2022-12-03T03:04:45.382Z,100989.046875
2022-12-03T03:05:45.368Z,100988.80859375
2022-12-03T03:06:48.420Z,100988.9609375
2022-12-03T03:07:45.464Z,100988.65234375
2022-12-03T03:08:45.709Z,100989.4140625
2022-12-03T03:09:45.460Z,100985.44921875
2022-12-03T03:10:45.274Z,100990.26953125
2022-12-03T03:11:45.727Z,100993.25
2022-12-03T03:12:45.279Z,100986.125
2022-12-03T03:13:45.723Z,100994.19140625
2022-12-03T03:14:45.380Z,100992.3984375
2022-12-03T03:15:45.274Z,100992.97265625
2022-12-03T03:16:45.336Z,100991.97265625
2022-12-03T03:17:48.320Z,100990.92578125
2022-12-03T03:18:45.643Z,100992.28125
2022-12-03T03:19:45.476Z,100993.39453125
2022-12-03T03:20:45.403Z,100992.14453125
2022-12-03T03:21:45.430Z,100990.15625
2022-12-03T03:22:45.429Z,100990.1953125
2022-12-03T03:23:45.669Z,100994.03125
2022-12-03T03:24:45.421Z,100990.97265625
2022-12-03T03:25:45.386Z,100988.69140625
2022-12-03T03:26:45.715Z,100990.59375
2022-12-03T03:27:45.455Z,100990.625
2022-12-03T03:28:51.354Z,100988.5546875
2022-12-03T03:29:45.370Z,100993.33203125
2022-12-03T03:30:45.404Z,100996.28515625
2022-12-03T03:31:45.435Z,100990.390625
2022-12-03T03:32:45.443Z,100987.86328125
2022-12-03T03:33:45.693Z,100993.1171875
2022-12-03T03:34:48.445Z,100990.984375
2022-12-03T03:35:45.489Z,100995.83203125
2022-12-03T03:36:45.280Z,100992.5546875
2022-12-03T03:37:45.267Z,100990.1484375
2022-12-03T03:38:45.713Z,100995.70703125
2022-12-03T03:39:45.307Z,100993.1015625
2022-12-03T03:40:45.285Z,100995.94140625
2022-12-03T03:41:45.731Z,100995.52734375
2022-12-03T03:42:45.371Z,100993.08203125
2022-12-03T03:43:45.291Z,100992.96484375
2022-12-03T03:44:45.485Z,100995.62890625
2022-12-03T03:45:48.405Z,100997.33984375
2022-12-03T03:46:45.365Z,100994.52734375
2022-12-03T03:47:45.309Z,100994.56640625
2022-12-03T03:48:45.715Z,100992.6015625
2022-12-03T03:49:45.384Z,100992.85546875
2022-12-03T03:50:45.397Z,100992.97265625
2022-12-03T03:51:45.457Z,100988.375
2022-12-03T03:52:45.315Z,100991.40234375
2022-12-03T03:53:45.711Z,100989.08984375
2022-12-03T03:54:45.491Z,100986.8671875
2022-12-03T03:55:45.400Z,100989.29296875
2022-12-03T03:56:51.370Z,100989.30859375
2022-12-03T03:57:45.517Z,100983.01953125
2022-12-03T03:58:45.634Z,100983.31640625
2022-12-03T03:59:45.333Z,100982.54296875
2022-12-03T04:00:45.332Z,100981.86328125
2022-12-03T04:01:45.376Z,100978.125
2022-12-03T04:02:48.246Z,100976.23046875
2022-12-03T04:03:45.669Z,100976.046875
2022-12-03T04:04:45.294Z,100978.40234375
2022-12-03T04:05:45.452Z,100975.3125
2022-12-03T04:06:45.263Z,100971.65234375
2022-12-03T04:07:45.472Z,100974.875
2022-12-03T04:08:45.637Z,100973.578125
2022-12-03T04:09:45.316Z,100978.33984375
2022-12-03T04:10:45.391Z,100972.99609375
2022-12-03T04:11:45.719Z,100974.66015625
2022-12-03T04:12:45.366Z,100966.73828125
2022-12-03T04:13:51.323Z,100969.1640625
2022-12-03T04:14:45.348Z,100966.59765625
2022-12-03T04:15:45.284Z,100967.43359375
2022-12-03T04:16:45.410Z,100967.2421875
2022-12-03T04:17:45.376Z,100968.08203125
2022-12-03T04:18:45.635Z,100962.703125
2022-12-03T04:19:45.266Z,100967.7578125
2022-12-03T04:20:45.817Z,100970.10546875
2022-12-03T04:21:45.393Z,100962.36328125
2022-12-03T04:22:45.281Z,100963.1875
2022-12-03T04:23:45.709Z,100964.98046875
2022-12-03T04:24:48.398Z,100963.1328125
2022-12-03T04:25:45.426Z,100960.9140625
2022-12-03T04:26:45.762Z,100962.74609375
2022-12-03T04:27:45.460Z,100962.7734375
2022-12-03T04:28:45.752Z,100965.21875
2022-12-03T04:29:45.343Z,100961.046875
2022-12-03T04:30:45.360Z,100962.77734375
2022-12-03T04:31:45.424Z,100963.51171875
2022-12-03T04:32:45.285Z,100960.6171875
2022-12-03T04:33:45.713Z,100960.3125
2022-12-03T04:34:45.266Z,100957.58984375
2022-12-03T04:35:48.366Z,100957.609375
2022-12-03T04:36:45.389Z,100955.6796875
2022-12-03T04:37:45.283Z,100957.1484375
2022-12-03T04:38:45.633Z,100953.93359375
2022-12-03T04:39:45.457Z,100953.37890625
2022-12-03T04:40:45.400Z,100952.5546875
2022-12-03T04:41:45.639Z,100950.5
2022-12-03T04:42:45.282Z,100951.26171875
2022-12-03T04:43:45.764Z,100949.6796875
2022-12-03T04:44:45.494Z,100951.04296875
2022-12-03T04:45:45.432Z,100950.00390625
2022-12-03T04:46:48.424Z,100951.3515625
2022-12-03T04:47:45.360Z,100948.4140625
2022-12-03T04:48:45.808Z,100947.87109375
2022-12-03T04:49:45.385Z,100946.48046875
2022-12-03T04:50:45.402Z,100946.140625
2022-12-03T04:51:45.356Z,100945.28515625
2022-12-03T04:52:45.281Z,100943.5390625
2022-12-03T04:53:46.337Z,100946.109375
2022-12-03T04:54:45.378Z,100943.40625
2022-12-03T04:55:45.441Z,100946.03515625
2022-12-03T04:56:45.654Z,100945.33203125
2022-12-03T04:57:48.304Z,100947.90234375
2022-12-03T04:58:45.677Z,100942.3203125
2022-12-03T04:59:45.371Z,100944.98828125
2022-12-03T05:00:45.282Z,100945.3515625
2022-12-03T05:01:45.523Z,100944.6328125
2022-12-03T05:02:45.461Z,100945.32421875
2022-12-03T05:03:47.238Z,100948.625
2022-12-03T05:04:45.377Z,100948.0234375
2022-12-03T05:05:45.273Z,100950.375
2022-12-03T05:06:45.383Z,100952.4609375
2022-12-03T05:07:45.311Z,100949.11328125
2022-12-03T05:08:45.642Z,100948.765625
2022-12-03T05:09:45.396Z,100950.4375
2022-12-03T05:10:45.285Z,100950.421875
2022-12-03T05:11:45.773Z,100946.72265625
2022-12-03T05:12:45.345Z,100946.63671875
2022-12-03T05:13:48.680Z,100952.01171875
2022-12-03T05:14:45.372Z,100952.21484375
2022-12-03T05:15:45.280Z,100953.76171875
2022-12-03T05:16:45.334Z,100952.74609375
2022-12-03T05:17:45.280Z,100955.5078125
2022-12-03T05:18:45.298Z,100958.48828125
2022-12-03T05:19:45.357Z,100954.68359375
2022-12-03T05:20:52.773Z,100952.80078125
2022-12-03T05:21:45.438Z,100956.16796875
2022-12-03T05:22:45.393Z,100960.3671875
2022-12-03T05:23:45.705Z,100957.75390625
2022-12-03T05:24:45.318Z,100957.4140625
2022-12-03T05:25:45.376Z,100954.9296875
2022-12-03T05:26:45.656Z,100956.12890625
2022-12-03T05:27:45.455Z,100958.21484375
2022-12-03T05:28:45.669Z,100958.75
2022-12-03T05:29:48.277Z,100959.81640625
2022-12-03T05:30:45.397Z,100959.4140625
2022-12-03T05:31:45.286Z,100961.96484375
2022-12-03T05:32:45.286Z,100959.53515625
2022-12-03T05:33:45.720Z,100958.9921875
2022-12-03T05:34:45.280Z,100958.20703125
2022-12-03T05:35:45.295Z,100959.2578125
2022-12-03T05:36:45.272Z,100953.39453125
2022-12-03T05:37:45.363Z,100954.34765625
2022-12-03T05:38:45.712Z,100952.70703125
2022-12-03T05:39:45.485Z,100955.38671875
2022-12-03T05:40:48.399Z,100953.95703125
2022-12-03T05:41:45.683Z,100958.36328125
2022-12-03T05:42:45.347Z,100954.2109375
2022-12-03T05:43:45.685Z,100956.23828125
2022-12-03T05:44:45.329Z,100954.90625
2022-12-03T05:45:45.441Z,100956.58203125
2022-12-03T05:46:45.372Z,100957.91796875
2022-12-03T05:47:45.376Z,100955.40234375
2022-12-03T05:48:45.691Z,100950.953125
2022-12-03T05:49:45.269Z,100956.65234375
2022-12-03T05:50:45.350Z,100952.51171875
2022-12-03T05:51:48.233Z,100953.5546875
2022-12-03T05:52:45.261Z,100957.78515625
2022-12-03T05:53:45.712Z,100955.7109375
2022-12-03T05:54:45.351Z,100957.7109375
2022-12-03T05:55:45.466Z,100956.421875
2022-12-03T05:56:45.715Z,100963.3515625
2022-12-03T05:57:45.276Z,100962.89453125
2022-12-03T05:58:45.649Z,100960.94140625
2022-12-03T05:59:45.346Z,100962.171875
2022-12-03T06:00:45.367Z,100959.5703125
2022-12-03T06:01:45.286Z,100966.4140625
2022-12-03T06:02:48.517Z,100960.515625
2022-12-03T06:03:45.820Z,100966.34375
2022-12-03T06:04:45.261Z,100966.78515625
2022-12-03T06:05:45.289Z,100966.94921875
2022-12-03T06:06:45.364Z,100965.1953125
2022-12-03T06:07:45.449Z,100965.046875
2022-12-03T06:08:45.712Z,100963.96484375
2022-12-03T06:09:45.269Z,100967.75
2022-12-03T06:10:45.257Z,100966.48828125
2022-12-03T06:11:45.760Z,100966.01953125
2022-12-03T06:12:45.368Z,100968.07421875
2022-12-03T06:13:45.652Z,100963.74609375
2022-12-03T06:14:45.355Z,100962.9375
2022-12-03T06:15:45.476Z,100962.91015625
2022-12-03T06:16:45.391Z,100960.3125
2022-12-03T06:17:45.268Z,100959.72265625
2022-12-03T06:18:45.706Z,100959.265625
2022-12-03T06:19:45.345Z,100957.55078125
2022-12-03T06:20:45.342Z,100957.80859375
2022-12-03T06:21:45.419Z,100956.22265625
2022-12-03T06:22:45.275Z,100959.2421875
2022-12-03T06:23:51.325Z,100953.84375
2022-12-03T06:24:45.490Z,100950.8828125
2022-12-03T06:25:45.401Z,100952.24609375
2022-12-03T06:26:46.438Z,100951.84765625
2022-12-03T06:27:45.359Z,100947.22265625
2022-12-03T06:28:45.489Z,100944.1953125
2022-12-03T06:29:48.270Z,100940.859375
2022-12-03T06:30:45.340Z,100941.6953125
2022-12-03T06:31:45.395Z,100942.15625
2022-12-03T06:32:45.355Z,100939.6875
2022-12-03T06:33:45.791Z,100940.6875
2022-12-03T06:34:45.372Z,100941.28515625
2022-12-03T06:35:45.437Z,100942.34765625
2022-12-03T06:36:45.280Z,100945.5703125
2022-12-03T06:37:45.279Z,100943.6640625
2022-12-03T06:38:45.714Z,100944.19140625
2022-12-03T06:39:45.371Z,100943.34375
2022-12-03T06:40:45.274Z,100946.05859375
2022-12-03T06:41:45.262Z,100943.140625
2022-12-03T06:42:45.729Z,100942.07421875
2022-12-03T06:43:45.785Z,100944.70703125
2022-12-03T06:44:45.331Z,100942.1875
2022-12-03T06:45:47.866Z,100942.0390625
2022-12-03T06:46:45.546Z,100940.9375
2022-12-03T06:47:45.353Z,100945.65234375
2022-12-03T06:48:45.783Z,100945.859375
2022-12-03T06:49:45.427Z,100941.1875
2022-12-03T06:50:48.257Z,100942.875
2022-12-03T06:51:45.348Z,100936.9140625
2022-12-03T06:52:45.390Z,100938.08984375
2022-12-03T06:53:45.717Z,100936.1796875
2022-12-03T06:54:45.359Z,100940.453125
2022-12-03T06:55:45.388Z,100935.2890625
2022-12-03T06:56:45.678Z,100935.73828125
2022-12-03T06:57:45.707Z,100929.3515625
2022-12-03T06:58:45.766Z,100931.39453125
2022-12-03T06:59:45.337Z,100930.21484375
2022-12-03T07:00:45.484Z,100928.54296875
2022-12-03T07:01:48.320Z,100932.234375
2022-12-03T07:02:45.420Z,100936.19921875
2022-12-03T07:03:45.645Z,100931.6796875
2022-12-03T07:04:46.483Z,100930.0078125
2022-12-03T07:05:45.268Z,100931.140625
2022-12-03T07:06:45.419Z,100938.64453125
2022-12-03T07:07:45.394Z,100938.74609375
2022-12-03T07:08:45.705Z,100940.609375
2022-12-03T07:09:45.479Z,100936.3046875
2022-12-03T07:10:45.500Z,100936.55859375
2022-12-03T07:11:45.381Z,100934.6796875
2022-12-03T07:12:51.341Z,100937.3828125
2022-12-03T07:13:45.357Z,100937.43359375
2022-12-03T07:14:45.264Z,100939.47265625
2022-12-03T07:15:45.335Z,100942.08984375
2022-12-03T07:16:45.463Z,100942.32421875
2022-12-03T07:17:45.336Z,100944.91796875
2022-12-03T07:18:51.305Z,100944.94140625
2022-12-03T07:19:45.325Z,100948.5078125
2022-12-03T07:20:45.377Z,100944.1171875
2022-12-03T07:21:45.326Z,100947.5390625
2022-12-03T07:22:45.332Z,100948.31640625
2022-12-03T07:23:45.760Z,100951.390625
2022-12-03T07:24:45.261Z,100951.046875
2022-12-03T07:25:45.381Z,100946.94921875
2022-12-03T07:26:45.385Z,100949.515625
2022-12-03T07:27:45.372Z,100950.38671875
2022-12-03T07:28:45.768Z,100948.58984375
2022-12-03T07:29:48.307Z,100949.07421875
2022-12-03T07:30:45.377Z,100947.7109375
2022-12-03T07:31:45.483Z,100949.08984375
2022-12-03T07:32:45.420Z,100949.19140625
2022-12-03T07:33:45.647Z,100949.80078125
2022-12-03T07:34:45.344Z,100951.73046875
2022-12-03T07:35:45.361Z,100953.1953125
2022-12-03T07:36:45.265Z,100952.8984375
2022-12-03T07:37:45.375Z,100952.8515625
2022-12-03T07:38:45.710Z,100955.82421875
2022-12-03T07:39:45.344Z,100948.18359375
2022-12-03T07:40:48.289Z,100952.66796875
2022-12-03T07:41:45.347Z,100954.96484375
2022-12-03T07:42:45.762Z,100956.18359375
2022-12-03T07:43:45.642Z,100957.01171875
2022-12-03T07:44:45.400Z,100951.52734375
2022-12-03T07:45:45.280Z,100951.63671875
2022-12-03T07:46:45.349Z,100952.95703125
2022-12-03T07:47:45.388Z,100952.62109375
2022-12-03T07:48:45.637Z,100951.421875
2022-12-03T07:49:45.478Z,100950.08203125
2022-12-03T07:50:45.354Z,100953.99609375
2022-12-03T07:51:48.285Z,100947.3984375
2022-12-03T07:52:45.411Z,100951.8046875
2022-12-03T07:53:45.280Z,100954.52734375
2022-12-03T07:54:45.272Z,100950.78515625
2022-12-03T07:55:45.387Z,100949.859375
2022-12-03T07:56:45.300Z,100949.7578125
2022-12-03T07:57:45.623Z,100948.75390625
2022-12-03T07:58:45.756Z,100947.6015625
2022-12-03T07:59:45.487Z,100946.55859375
2022-12-03T08:00:45.422Z,100950.703125
2022-12-03T08:01:47.563Z,100946.5703125
2022-12-03T08:02:45.331Z,100944.12109375
2022-12-03T08:03:45.399Z,100944.765625
2022-12-03T08:04:45.362Z,100942.3203125
2022-12-03T08:05:45.357Z,100943.9375
2022-12-03T08:06:45.267Z,100943.18359375
2022-12-03T08:07:45.355Z,100949.46484375
2022-12-03T08:08:45.714Z,100947.84375
2022-12-03T08:09:45.374Z,100946.9453125
2022-12-03T08:10:45.347Z,100948.13671875
2022-12-03T08:11:45.359Z,100949.5703125
2022-12-03T08:12:51.350Z,100949.1796875
2022-12-03T08:13:45.446Z,100945.14453125
2022-12-03T08:14:45.444Z,100949.0234375
2022-12-03T08:15:45.433Z,100953.453125
2022-12-03T08:16:45.344Z,100950.12109375
2022-12-03T08:17:45.281Z,100950.80078125
2022-12-03T08:18:45.643Z,100947.4453125
2022-12-03T08:19:45.500Z,100948.00390625
2022-12-03T08:20:45.435Z,100949.23828125
2022-12-03T08:21:45.262Z,100948.078125
2022-12-03T08:22:45.423Z,100951.82421875
2022-12-03T08:23:48.282Z,100948.8125
2022-12-03T08:24:45.397Z,100943.48046875
2022-12-03T08:25:45.276Z,100946.76171875
2022-12-03T08:26:45.425Z,100950.234375
2022-12-03T08:27:45.767Z,100950.53125
2022-12-03T08:28:45.653Z,100946.0390625
2022-12-03T08:29:48.321Z,100948.8828125
2022-12-03T08:30:45.335Z,100948.69921875
2022-12-03T08:31:45.485Z,100947.1875
2022-12-03T08:32:45.396Z,100950.24609375
2022-12-03T08:33:45.713Z,100949.734375
2022-12-03T08:34:45.285Z,100951.625
2022-12-03T08:35:45.287Z,100952.05859375
2022-12-03T08:36:45.261Z,100950.51953125
2022-12-03T08:37:45.345Z,100951.5546875
2022-12-03T08:38:45.710Z,100950.0703125
2022-12-03T08:39:45.348Z,100952.84375
2022-12-03T08:40:48.362Z,100951.9375
2022-12-03T08:41:45.458Z,100953.90625
2022-12-03T08:42:45.740Z,100953.671875
2022-12-03T08:43:45.636Z,100952.1484375
2022-12-03T08:44:45.358Z,100952.91015625
2022-12-03T08:45:45.625Z,100958.47265625
2022-12-03T08:46:48.262Z,100954.86328125
2022-12-03T08:47:45.279Z,100955.71875
2022-12-03T08:48:48.948Z,100951.890625
2022-12-03T08:49:45.439Z,100950.17578125
2022-12-03T08:50:45.263Z,100947.65234375
2022-12-03T08:51:45.398Z,100948.09375
2022-12-03T08:52:45.384Z,100948.50390625
2022-12-03T08:53:45.715Z,100943.46875
2022-12-03T08:54:45.492Z,100941.171875
2022-12-03T08:55:45.445Z,100937.453125
2022-12-03T08:56:45.468Z,100941.86328125
2022-12-03T08:57:51.368Z,100939.9765625
2022-12-03T08:58:45.641Z,100941.546875
2022-12-03T08:59:45.757Z,100941.42578125
2022-12-03T09:00:45.405Z,100942.62890625
2022-12-03T09:01:45.561Z,100941.98828125
2022-12-03T09:02:45.351Z,100943.125
2022-12-03T09:03:45.466Z,100940.234375
2022-12-03T09:04:45.431Z,100935.58203125
2022-12-03T09:05:45.381Z,100932.49609375
2022-12-03T09:06:45.275Z,100933.2265625
2022-12-03T09:07:45.449Z,100936.87890625
2022-12-03T09:08:45.635Z,100929.12109375
2022-12-03T09:09:45.427Z,100933.265625
2022-12-03T09:10:45.335Z,100931.44921875
2022-12-03T09:11:45.272Z,100930.546875
2022-12-03T09:12:45.765Z,100940.12890625
2022-12-03T09:13:51.323Z,100939.08203125
2022-12-03T09:14:45.341Z,100936.78515625
2022-12-03T09:15:45.382Z,100934.84765625
2022-12-03T09:16:45.489Z,100939.37890625
2022-12-03T09:17:45.276Z,100936.44140625
2022-12-03T09:18:45.642Z,100937.9609375
2022-12-03T09:19:46.084Z,100939.27734375
2022-12-03T09:20:45.263Z,100941.1875
2022-12-03T09:21:45.375Z,100936.65625
2022-12-03T09:22:45.452Z,100935.01953125
2022-12-03T09:23:45.640Z,100938.30859375
2022-12-03T09:24:45.503Z,100939.45703125
2022-12-03T09:25:45.306Z,100936.66015625
2022-12-03T09:26:45.378Z,100940.75390625
2022-12-03T09:27:45.714Z,100937.859375
2022-12-03T09:28:45.650Z,100936.98046875
2022-12-03T09:29:48.386Z,100942.65234375
2022-12-03T09:30:45.372Z,100945.53125
2022-12-03T09:31:45.342Z,100941.140625
2022-12-03T09:32:45.267Z,100942.2109375
2022-12-03T09:33:45.771Z,100942.1171875
2022-12-03T09:34:45.464Z,100945.94140625
2022-12-03T09:35:45.266Z,100944.203125
2022-12-03T09:36:45.519Z,100945.578125
2022-12-03T09:37:45.283Z,100935.98046875
2022-12-03T09:38:47.923Z,100935.12109375
2022-12-03T09:39:45.567Z,100936.1328125
2022-12-03T09:40:48.316Z,100936.546875
2022-12-03T09:41:45.334Z,100931.8828125
2022-12-03T09:42:45.715Z,100925.64453125
2022-12-03T09:44:04.335Z,100921.51953125
2022-12-03T09:44:45.507Z,100923.43359375
2022-12-03T09:45:45.409Z,100919.58203125
2022-12-03T09:46:45.264Z,100918.7421875
2022-12-03T09:47:45.421Z,100920.5859375
2022-12-03T09:48:45.743Z,100922.40234375
2022-12-03T09:49:45.366Z,100922.01171875
2022-12-03T09:50:45.385Z,100916.73046875
2022-12-03T09:51:50.363Z,100916.03125
2022-12-03T09:52:45.377Z,100920.7421875
2022-12-03T09:53:45.714Z,100921.66015625
2022-12-03T09:54:47.483Z,100917.171875
2022-12-03T09:55:45.269Z,100918.27734375
2022-12-03T09:56:45.462Z,100920.8046875
2022-12-03T09:57:45.265Z,100917.22265625